This is the latest recevied weather packets stored in our database for station/object DG5TS-10. If no packets are shown the sender has not sent any weather packets the latest 10 day(s).
| Time | Temp. | Humidity | Pressure | Rain* | Wind** | Luminosity | Snow |
|---|---|---|---|---|---|---|---|
| 1778085068 | 18.33° C | 42% | 1007.4 hPa | - | - | - | - |
| 1778084167 | 18.89° C | 41% | 1007.4 hPa | - | - | - | - |
| 1778083267 | 19.44° C | 39% | 1007.5 hPa | - | - | - | - |
| 1778082367 | 20° C | 38% | 1007.4 hPa | - | - | - | - |
| 1778081467 | 19.44° C | 40% | 1007.5 hPa | - | - | - | - |
| 1778080567 | 19.44° C | 40% | 1007.6 hPa | - | - | - | - |
| 1778079667 | 19.44° C | 39% | 1007.5 hPa | - | - | - | - |
| 1778078767 | 20° C | 38% | 1007.5 hPa | - | - | - | - |
| 1778077866 | 20° C | 38% | 1007.5 hPa | - | - | - | - |
| 1778076966 | 20.56° C | 37% | 1007.6 hPa | - | - | - | - |
| 1778076066 | 20.56° C | 37% | 1007.6 hPa | - | - | - | - |
| 1778075167 | 20° C | 37% | 1007.6 hPa | - | - | - | - |
| 1778074266 | 19.44° C | 38% | 1007.8 hPa | - | - | - | - |
| 1778073366 | 19.44° C | 38% | 1007.6 hPa | - | - | - | - |
| 1778072465 | 19.44° C | 38% | 1007.7 hPa | - | - | - | - |
| 1778071561 | 20.56° C | 37% | 1007.5 hPa | - | - | - | - |
| 1778070661 | 22.78° C | 34% | 1007.4 hPa | - | - | - | - |
| 1778069761 | 22.22° C | 34% | 1007.5 hPa | - | - | - | - |
| 1778068861 | 21.67° C | 35% | 1007.4 hPa | - | - | - | - |
| 1778067961 | 21.11° C | 36% | 1007.4 hPa | - | - | - | - |
| 1778067066 | 20.56° C | 35% | 1007.3 hPa | - | - | - | - |
| 1778066011 | 20.56° C | 36% | 1007.4 hPa | - | - | - | - |
| 1778064956 | 21.67° C | 35% | 1007.4 hPa | - | - | - | - |
| 1778063900 | 23.89° C | 32% | 1007.3 hPa | - | - | - | - |
| 1778062846 | 22.22° C | 34% | 1007.4 hPa | - | - | - | - |
* Rain since midnight (hover to see other rain measurements)
** Current wind speed in m/s (hover to see current wind gust speed)